createdAt,value
2022-12-13T00:02:03.017Z,97555.34
2022-12-13T00:04:34.073Z,97561.97
2022-12-13T00:07:04.638Z,97552.31
2022-12-13T00:09:33.731Z,97552.31
2022-12-13T00:12:03.240Z,97546.94
2022-12-13T00:14:33.907Z,97545.09
2022-12-13T00:17:04.079Z,97541.81
2022-12-13T00:19:35.561Z,97538.31
2022-12-13T00:22:04.797Z,97535.66
2022-12-13T00:24:34.200Z,97532.13
2022-12-13T00:27:03.180Z,97528.66
2022-12-13T00:29:32.914Z,97530.41
2022-12-13T00:32:02.742Z,97524.34
2022-12-13T00:34:33.002Z,97527.47
2022-12-13T00:37:02.899Z,97517.91
2022-12-13T00:39:32.075Z,97514.66
2022-12-13T00:42:00.609Z,97523.28
2022-12-13T00:44:31.252Z,97524.09
2022-12-13T00:46:59.820Z,97524.81
2022-12-13T00:49:29.637Z,97513.59
2022-12-13T00:52:00.246Z,97509.97
2022-12-13T00:54:29.887Z,97518.47
2022-12-13T00:57:00.510Z,97513.34
2022-12-13T00:59:30.958Z,97516.88
2022-12-13T01:02:00.436Z,97509.31
2022-12-13T01:04:29.528Z,97505.00
2022-12-13T01:07:00.361Z,97501.50
2022-12-13T01:09:31.155Z,97499.97
2022-12-13T01:12:01.830Z,97488.00
2022-12-13T01:14:31.633Z,97498.38
2022-12-13T01:17:01.043Z,97489.06
2022-12-13T01:19:30.611Z,97496.06
2022-12-13T01:22:03.829Z,97502.94
2022-12-13T01:24:34.694Z,97493.38
2022-12-13T01:27:04.020Z,97498.47
2022-12-13T01:29:33.817Z,97506.06
2022-12-13T01:32:03.051Z,97489.88
2022-12-13T01:34:33.224Z,97486.59
2022-12-13T01:37:04.672Z,97486.84
2022-12-13T01:39:38.034Z,97482.81
2022-12-13T01:42:15.684Z,97481.97
2022-12-13T01:45:04.473Z,97487.09
2022-12-13T01:47:42.060Z,97484.53
2022-12-13T01:50:18.432Z,97490.59
2022-12-13T01:52:51.245Z,97498.16
2022-12-13T01:55:23.037Z,97497.34
2022-12-13T01:57:54.703Z,97491.97
2022-12-13T02:00:25.993Z,97492.94
2022-12-13T02:02:58.897Z,97495.25
2022-12-13T02:05:36.364Z,97490.69
2022-12-13T02:08:09.053Z,97488.00
2022-12-13T02:10:38.829Z,97493.94
2022-12-13T02:13:08.412Z,97490.44
2022-12-13T02:15:52.399Z,97484.38
2022-12-13T02:18:45.633Z,97486.91
2022-12-13T02:21:24.669Z,97485.88
2022-12-13T02:24:34.001Z,97482.50
2022-12-13T02:27:12.311Z,97486.56
2022-12-13T02:30:22.848Z,97482.16
2022-12-13T02:33:31.792Z,97480.75
2022-12-13T02:36:14.724Z,97481.25
2022-12-13T02:38:57.513Z,97477.75
2022-12-13T02:41:37.467Z,97474.50
2022-12-13T02:44:21.807Z,97474.75
2022-12-13T02:47:00.957Z,97473.81
2022-12-13T02:49:36.030Z,97477.75
2022-12-13T02:52:09.052Z,97481.78
2022-12-13T02:54:42.911Z,97477.38
2022-12-13T02:57:35.885Z,97477.75
2022-12-13T03:00:12.323Z,97476.00
2022-12-13T03:03:06.794Z,97472.63
2022-12-13T03:06:05.675Z,97469.38
2022-12-13T03:08:52.712Z,97472.88
2022-12-13T03:11:23.831Z,97474.75
2022-12-13T03:13:57.623Z,97474.19
2022-12-13T03:16:36.535Z,97470.09
2022-12-13T03:19:10.746Z,97480.25
2022-12-13T03:21:47.055Z,97472.00
2022-12-13T03:24:19.410Z,97465.13
2022-12-13T03:26:50.679Z,97467.94
2022-12-13T03:29:24.109Z,97468.97
2022-12-13T03:31:54.862Z,97474.47
2022-12-13T03:34:24.703Z,97475.41
2022-12-13T03:36:55.107Z,97480.63
2022-12-13T03:39:25.614Z,97459.47
2022-12-13T03:41:55.376Z,97472.16
2022-12-13T03:44:25.010Z,97473.34
2022-12-13T03:47:01.514Z,97466.47
2022-12-13T03:49:35.227Z,97458.56
2022-12-13T03:52:06.978Z,97454.94
2022-12-13T03:54:36.517Z,97451.13
2022-12-13T03:57:05.747Z,97456.25
2022-12-13T03:59:36.023Z,97463.78
2022-12-13T04:02:06.705Z,97458.34
2022-12-13T04:04:37.767Z,97462.78
2022-12-13T04:07:22.445Z,97470.31
2022-12-13T04:09:52.412Z,97470.22
2022-12-13T04:12:39.347Z,97470.22
2022-12-13T04:15:12.951Z,97458.09
2022-12-13T04:17:42.868Z,97460.66
2022-12-13T04:20:22.767Z,97465.91
2022-12-13T04:22:52.258Z,97459.97
2022-12-13T04:25:22.089Z,97454.84
2022-12-13T04:27:51.193Z,97447.28
2022-12-13T04:30:21.683Z,97444.88
2022-12-13T04:32:52.558Z,97439.59
2022-12-13T04:35:23.753Z,97434.63
2022-12-13T04:37:54.722Z,97434.63
2022-12-13T04:40:24.444Z,97436.47
2022-12-13T04:42:54.787Z,97438.22
2022-12-13T04:45:25.417Z,97452.91
2022-12-13T04:47:55.566Z,97451.41
2022-12-13T04:50:26.860Z,97457.44
2022-12-13T04:52:55.675Z,97457.44
2022-12-13T04:55:25.195Z,97454.78
2022-12-13T04:57:54.282Z,97456.53
2022-12-13T05:00:24.725Z,97455.56
2022-12-13T05:02:55.651Z,97450.38
2022-12-13T05:05:26.788Z,97455.50
2022-12-13T05:07:56.348Z,97453.41
2022-12-13T05:10:34.082Z,97454.34
2022-12-13T05:13:07.580Z,97441.81
2022-12-13T05:15:36.449Z,97450.28
2022-12-13T05:18:10.455Z,97438.19
2022-12-13T05:20:42.476Z,97440.06
2022-12-13T05:23:12.503Z,97442.50
2022-12-13T05:25:42.586Z,97437.59
2022-12-13T05:28:28.139Z,97433.31
2022-12-13T05:31:00.688Z,97431.69
2022-12-13T05:33:29.698Z,97432.03
2022-12-13T05:36:02.205Z,97437.97
2022-12-13T05:38:31.504Z,97442.94
2022-12-13T05:41:00.703Z,97437.59
2022-12-13T05:43:42.810Z,97441.47
2022-12-13T05:46:13.441Z,97446.47
2022-12-13T05:48:43.384Z,97437.84
2022-12-13T05:51:14.561Z,97430.41
2022-12-13T05:53:47.325Z,97441.47
2022-12-13T05:56:23.174Z,97448.00
2022-12-13T05:58:54.564Z,97442.88
2022-12-13T06:01:24.601Z,97433.97
2022-12-13T06:03:55.733Z,97434.75
2022-12-13T06:06:26.895Z,97435.00
2022-12-13T06:08:55.906Z,97441.63
2022-12-13T06:11:31.648Z,97449.97
2022-12-13T06:14:02.739Z,97445.69
2022-12-13T06:16:31.576Z,97445.69
2022-12-13T06:19:04.664Z,97445.47
2022-12-13T06:21:41.472Z,97441.06
2022-12-13T06:24:13.405Z,97443.38
2022-12-13T06:26:45.084Z,97450.22
2022-12-13T06:29:23.513Z,97447.34
2022-12-13T06:32:01.232Z,97447.34
2022-12-13T06:34:35.830Z,97458.97
2022-12-13T06:37:10.311Z,97458.00
2022-12-13T06:39:40.371Z,97448.72
2022-12-13T06:42:21.806Z,97456.50
2022-12-13T06:44:55.710Z,97453.63
2022-12-13T06:47:31.726Z,97452.69
2022-12-13T06:50:05.275Z,97457.91
2022-12-13T06:52:37.473Z,97460.38
2022-12-13T06:55:08.233Z,97450.47
2022-12-13T06:57:37.555Z,97454.78
2022-12-13T07:00:13.873Z,97455.84
2022-12-13T07:02:55.282Z,97456.53
2022-12-13T07:05:25.143Z,97458.25
2022-12-13T07:07:56.803Z,97451.78
2022-12-13T07:10:26.343Z,97455.25
2022-12-13T07:12:55.396Z,97458.50
2022-12-13T07:15:24.215Z,97466.31
2022-12-13T07:17:56.652Z,97467.69
2022-12-13T07:20:25.791Z,97465.72
2022-12-13T07:22:58.788Z,97468.53
2022-12-13T07:25:29.521Z,97475.13
2022-12-13T07:28:02.390Z,97472.69
2022-12-13T07:30:41.481Z,97474.31
2022-12-13T07:33:11.612Z,97462.13
2022-12-13T07:35:43.298Z,97466.66
2022-12-13T07:38:14.048Z,97469.56
2022-12-13T07:40:43.096Z,97466.66
2022-12-13T07:43:16.177Z,97473.41
2022-12-13T07:45:46.520Z,97468.28
2022-12-13T07:48:15.850Z,97473.31
2022-12-13T07:50:45.676Z,97478.75
2022-12-13T07:53:25.273Z,97470.25
2022-12-13T07:55:54.697Z,97471.09
2022-12-13T07:58:23.994Z,97469.94
2022-12-13T08:00:53.292Z,97462.00
2022-12-13T08:03:25.152Z,97469.44
2022-12-13T08:06:02.350Z,97467.81
2022-12-13T08:08:33.219Z,97475.63
2022-12-13T08:11:04.274Z,97466.31
2022-12-13T08:13:33.921Z,97474.47
2022-12-13T08:16:04.332Z,97482.47
2022-12-13T08:19:02.970Z,97483.38
2022-12-13T08:21:53.976Z,97492.22
2022-12-13T08:24:26.121Z,97488.88
2022-12-13T08:26:57.584Z,97482.94
2022-12-13T08:29:33.941Z,97484.78
2022-12-13T08:32:06.437Z,97480.81
2022-12-13T08:34:35.773Z,97480.81
2022-12-13T08:37:05.139Z,97485.81
2022-12-13T08:39:37.650Z,97484.91
2022-12-13T08:42:16.286Z,97490.22
2022-12-13T08:44:49.303Z,97488.97
2022-12-13T08:47:23.062Z,97488.63
2022-12-13T08:50:01.308Z,97495.84
2022-12-13T08:52:39.477Z,97495.94
2022-12-13T08:55:15.660Z,97493.75
2022-12-13T08:57:46.501Z,97498.72
2022-12-13T09:00:21.338Z,97493.84
2022-12-13T09:02:53.327Z,97498.03
2022-12-13T09:05:32.960Z,97495.50
2022-12-13T09:08:23.018Z,97510.59
2022-12-13T09:11:00.336Z,97495.25
2022-12-13T09:13:32.533Z,97490.97
2022-12-13T09:16:14.440Z,97485.38
2022-12-13T09:18:55.415Z,97493.47
2022-12-13T09:21:31.262Z,97488.16
2022-12-13T09:24:02.585Z,97496.50
2022-12-13T09:26:37.843Z,97488.75
2022-12-13T09:29:10.713Z,97495.22
2022-12-13T09:31:41.395Z,97498.50
2022-12-13T09:34:11.397Z,97495.69
2022-12-13T09:36:41.154Z,97490.09
2022-12-13T09:39:12.022Z,97486.63
2022-12-13T09:41:48.016Z,97490.91
2022-12-13T09:44:32.446Z,97487.53
2022-12-13T09:47:26.796Z,97489.75
2022-12-13T09:50:15.361Z,97489.97
2022-12-13T09:52:46.968Z,97482.41
2022-12-13T09:55:24.168Z,97476.38
2022-12-13T09:57:55.464Z,97479.38
2022-12-13T10:00:29.822Z,97478.34
2022-12-13T10:03:01.173Z,97482.97
2022-12-13T10:05:38.405Z,97480.97
2022-12-13T10:08:14.990Z,97481.22
2022-12-13T10:10:46.167Z,97480.03
2022-12-13T10:13:22.472Z,97473.06
2022-12-13T10:16:00.763Z,97470.00
2022-12-13T10:18:38.227Z,97466.38
2022-12-13T10:21:14.341Z,97461.16
2022-12-13T10:24:22.671Z,97466.94
2022-12-13T10:26:38.793Z,97473.69
2022-12-13T10:29:10.001Z,97470.88
2022-12-13T10:31:45.023Z,97462.03
2022-12-13T10:34:26.614Z,97456.66
2022-12-13T10:36:59.564Z,97455.50
2022-12-13T10:39:43.249Z,97443.63
2022-12-13T10:42:22.625Z,97447.69
2022-12-13T10:45:15.563Z,97454.69
2022-12-13T10:47:48.027Z,97444.69
2022-12-13T10:50:28.565Z,97450.06
2022-12-13T10:53:01.432Z,97449.00
2022-12-13T10:55:35.273Z,97450.88
2022-12-13T10:58:09.637Z,97440.50
2022-12-13T11:00:45.368Z,97442.00
2022-12-13T11:03:32.604Z,97442.00
2022-12-13T11:06:08.364Z,97432.25
2022-12-13T11:08:38.722Z,97436.06
2022-12-13T11:11:12.406Z,97426.75
2022-12-13T11:13:48.169Z,97421.53
2022-12-13T11:16:28.058Z,97420.47
2022-12-13T11:19:01.541Z,97425.44
2022-12-13T11:21:35.299Z,97412.53
2022-12-13T11:24:09.379Z,97397.28
2022-12-13T11:26:43.014Z,97380.41
2022-12-13T11:29:40.146Z,97388.91
2022-12-13T11:32:27.549Z,97393.22
2022-12-13T11:35:14.976Z,97392.66
2022-12-13T11:37:56.246Z,97386.88
2022-12-13T11:40:30.373Z,97381.53
2022-12-13T11:43:07.556Z,97388.03
2022-12-13T11:45:43.146Z,97380.63
2022-12-13T11:48:24.028Z,97382.34
2022-12-13T11:50:57.031Z,97379.13
2022-12-13T11:53:36.027Z,97380.88
2022-12-13T11:56:17.330Z,97382.72
2022-12-13T11:59:08.534Z,97378.31
2022-12-13T12:01:47.570Z,97366.94
2022-12-13T12:04:32.908Z,97366.94
2022-12-13T12:07:31.239Z,97362.63
2022-12-13T12:10:17.676Z,97353.88
2022-12-13T12:12:56.815Z,97352.25
2022-12-13T12:15:33.366Z,97345.03
2022-12-13T12:18:17.926Z,97337.09
2022-12-13T12:21:09.547Z,97340.59
2022-12-13T12:24:03.100Z,97353.28
2022-12-13T12:26:47.137Z,97348.81
2022-12-13T12:29:42.819Z,97349.63
2022-12-13T12:32:28.101Z,97345.34
2022-12-13T12:35:15.391Z,97343.34
2022-12-13T12:37:55.297Z,97349.53
2022-12-13T12:41:15.615Z,97343.59
2022-12-13T12:43:45.550Z,97339.59
2022-12-13T12:47:17.703Z,97327.84
2022-12-13T12:50:28.450Z,97322.22
2022-12-13T12:53:21.180Z,97320.22
2022-12-13T12:56:07.146Z,97334.63
2022-12-13T12:58:48.927Z,97331.03
2022-12-13T13:01:46.796Z,97333.34
2022-12-13T13:04:23.141Z,97330.38
2022-12-13T13:07:01.566Z,97333.88
2022-12-13T13:09:34.197Z,97336.72
2022-12-13T13:12:29.696Z,97334.38
2022-12-13T13:14:58.231Z,97333.44
2022-12-13T13:17:48.409Z,97331.81
2022-12-13T13:20:24.650Z,97335.34
2022-12-13T13:23:17.520Z,97325.75
2022-12-13T13:28:46.454Z,97316.72
2022-12-13T13:31:17.143Z,97314.28
2022-12-13T13:33:50.286Z,97317.88
2022-12-13T13:36:52.707Z,97318.59
2022-12-13T13:39:57.897Z,97315.34
2022-12-13T13:42:30.303Z,97310.22
2022-12-13T13:45:24.394Z,97320.72
2022-12-13T13:48:21.210Z,97324.66
2022-12-13T13:52:23.870Z,97319.78
2022-12-13T13:55:19.961Z,97325.84
2022-12-13T13:58:40.212Z,97332.69
2022-12-13T14:02:23.078Z,97331.91
2022-12-13T14:06:03.720Z,97330.69
2022-12-13T14:09:05.906Z,97316.28
2022-12-13T14:12:43.187Z,97323.97
2022-12-13T14:16:35.844Z,97317.09
2022-12-13T14:20:11.066Z,97310.22
2022-12-13T14:22:46.850Z,97307.44
2022-12-13T14:25:51.995Z,97305.53
2022-12-13T14:28:36.784Z,97305.28
2022-12-13T14:31:06.664Z,97294.09
2022-12-13T14:33:36.276Z,97294.38
2022-12-13T14:36:06.174Z,97293.66
2022-12-13T14:38:36.855Z,97293.41
2022-12-13T14:41:16.323Z,97295.72
2022-12-13T14:43:50.101Z,97299.22
2022-12-13T14:46:19.936Z,97296.66
2022-12-13T14:48:54.115Z,97291.41
2022-12-13T14:51:34.760Z,97283.16
2022-12-13T14:54:06.828Z,97285.97
2022-12-13T14:56:37.325Z,97287.59
2022-12-13T14:59:14.941Z,97282.47
2022-12-13T15:01:47.708Z,97286.53
2022-12-13T15:04:30.731Z,97286.53
2022-12-13T15:07:06.991Z,97269.78
2022-12-13T15:10:01.018Z,97261.56
2022-12-13T15:12:32.443Z,97266.00
2022-12-13T15:15:06.566Z,97259.25
2022-12-13T15:17:39.006Z,97258.84
2022-12-13T15:20:27.256Z,97251.16
2022-12-13T15:23:03.067Z,97248.16
2022-12-13T15:25:35.111Z,97250.06
2022-12-13T15:28:08.087Z,97244.94
2022-12-13T15:30:38.485Z,97242.19
2022-12-13T15:33:10.511Z,97239.22
2022-12-13T15:35:41.515Z,97246.19
2022-12-13T15:38:28.624Z,97244.34
2022-12-13T15:41:02.817Z,97248.50
2022-12-13T15:43:38.563Z,97250.78
2022-12-13T15:46:08.842Z,97246.25
2022-12-13T15:48:41.939Z,97252.44
2022-12-13T15:51:29.838Z,97261.56
2022-12-13T15:54:27.704Z,97255.88
2022-12-13T15:57:14.763Z,97253.19
2022-12-13T15:59:46.390Z,97252.94
2022-12-13T16:02:21.527Z,97253.63
2022-12-13T16:04:51.908Z,97249.31
2022-12-13T16:07:26.572Z,97252.56
2022-12-13T16:09:56.812Z,97252.69
2022-12-13T16:12:36.532Z,97253.63
2022-12-13T16:15:28.586Z,97252.00
2022-12-13T16:18:15.590Z,97257.13
2022-12-13T16:20:46.515Z,97256.88
2022-12-13T16:23:26.489Z,97247.56
2022-12-13T16:25:57.570Z,97254.13
2022-12-13T16:28:27.327Z,97247.38
2022-12-13T16:31:21.063Z,97224.22
2022-12-13T16:33:50.445Z,97219.22
2022-12-13T16:36:19.351Z,97215.06
2022-12-13T16:38:48.191Z,97219.22
2022-12-13T16:41:18.063Z,97213.28
2022-12-13T16:44:01.546Z,97218.75
2022-12-13T16:47:14.459Z,97223.88
2022-12-13T16:49:27.573Z,97209.81
2022-12-13T16:51:57.619Z,97215.84
2022-12-13T16:54:28.399Z,97208.06
2022-12-13T16:56:58.038Z,97204.44
2022-12-13T16:59:28.580Z,97192.44
2022-12-13T17:02:00.268Z,97193.16
2022-12-13T17:04:30.142Z,97211.72
2022-12-13T17:06:59.594Z,97217.41
2022-12-13T17:09:28.686Z,97217.97
2022-12-13T17:11:58.985Z,97222.41
2022-12-13T17:14:29.184Z,97221.44
2022-12-13T17:17:00.092Z,97209.34
2022-12-13T17:19:29.918Z,97187.00
2022-12-13T17:21:58.723Z,97183.50
2022-12-13T17:24:29.425Z,97180.38
2022-12-13T17:26:58.135Z,97180.75
2022-12-13T17:29:27.428Z,97169.72
2022-12-13T17:31:58.342Z,97179.13
2022-12-13T17:34:29.148Z,97174.00
2022-12-13T17:36:58.550Z,97165.66
2022-12-13T17:39:28.617Z,97174.00
2022-12-13T17:41:58.265Z,97168.91
2022-12-13T17:44:27.838Z,97144.94
2022-12-13T17:46:58.691Z,97127.81
2022-12-13T17:49:28.004Z,97126.59
2022-12-13T17:51:57.442Z,97155.44
2022-12-13T17:54:27.723Z,97150.03
2022-12-13T17:56:56.729Z,97138.72
2022-12-13T17:59:27.261Z,97137.69
2022-12-13T18:01:56.538Z,97144.41
2022-12-13T18:04:27.256Z,97163.28
2022-12-13T18:06:57.471Z,97150.59
2022-12-13T18:09:28.088Z,97151.41
2022-12-13T18:11:58.309Z,97163.28
2022-12-13T18:14:29.711Z,97156.53
2022-12-13T18:16:58.880Z,97163.53
2022-12-13T18:19:32.079Z,97156.53
2022-12-13T18:22:02.602Z,97151.16
2022-12-13T18:24:32.004Z,97156.00
2022-12-13T18:27:00.735Z,97156.00
2022-12-13T18:29:31.259Z,97146.47
2022-12-13T18:32:01.549Z,97143.91
2022-12-13T18:34:32.299Z,97152.41
2022-12-13T18:37:02.738Z,97136.88
2022-12-13T18:39:32.792Z,97124.75
2022-12-13T18:42:02.001Z,97129.34
2022-12-13T18:44:31.412Z,97137.97
2022-12-13T18:47:00.851Z,97142.00
2022-12-13T18:49:32.277Z,97139.34
2022-12-13T18:52:01.721Z,97137.56
2022-12-13T18:54:31.838Z,97150.34
2022-12-13T18:57:00.387Z,97150.13
2022-12-13T18:59:33.354Z,97147.41
2022-12-13T19:02:02.702Z,97138.25
2022-12-13T19:04:35.057Z,97148.50
2022-12-13T19:07:04.470Z,97133.81
2022-12-13T19:09:34.869Z,97128.00
2022-12-13T19:12:04.414Z,97129.34
2022-12-13T19:14:33.609Z,97128.53
2022-12-13T19:17:03.678Z,97130.41
2022-12-13T19:19:35.093Z,97123.69
2022-12-13T19:22:05.272Z,97113.56
2022-12-13T19:24:35.319Z,97105.88
2022-12-13T19:27:04.547Z,97104.41
2022-12-13T19:29:35.251Z,97100.09
2022-12-13T19:32:04.769Z,97106.97
2022-12-13T19:34:35.705Z,97108.56
2022-12-13T19:37:06.764Z,97111.38
2022-12-13T19:39:37.587Z,97114.75
2022-12-13T19:42:07.178Z,97103.72
2022-12-13T19:44:36.189Z,97101.31
2022-12-13T19:47:06.711Z,97098.59
2022-12-13T19:49:37.842Z,97106.97
2022-12-13T19:52:07.289Z,97097.78
2022-12-13T19:54:37.755Z,97084.03
2022-12-13T19:57:07.965Z,97079.75
2022-12-13T19:59:38.130Z,97084.88
2022-12-13T20:02:08.767Z,97092.97
2022-12-13T20:04:40.260Z,97091.59
2022-12-13T20:07:09.358Z,97073.69
2022-12-13T20:09:40.327Z,97072.72
2022-12-13T20:12:10.078Z,97070.88
2022-12-13T20:14:40.391Z,97063.44
2022-12-13T20:17:10.336Z,97055.78
2022-12-13T20:19:40.637Z,97059.25
2022-12-13T20:22:10.354Z,97055.78
2022-12-13T20:24:40.486Z,97049.03
2022-12-13T20:27:09.352Z,97043.25
2022-12-13T20:29:39.345Z,97037.16
2022-12-13T20:32:08.811Z,97034.59
2022-12-13T20:34:41.004Z,97033.41
2022-12-13T20:37:09.484Z,97025.88
2022-12-13T20:39:41.155Z,97037.59
2022-12-13T20:42:11.731Z,97037.31
2022-12-13T20:44:41.368Z,97022.22
2022-12-13T20:47:11.337Z,97018.03
2022-12-13T20:49:44.388Z,97027.34
2022-12-13T20:52:18.357Z,97025.31
2022-12-13T20:54:48.011Z,97022.63
2022-12-13T20:57:17.971Z,97020.59
2022-12-13T20:59:47.340Z,97022.06
2022-12-13T21:02:16.521Z,97013.47
2022-12-13T21:04:47.228Z,97014.16
2022-12-13T21:07:38.541Z,97011.59
2022-12-13T21:10:09.935Z,97013.19
2022-12-13T21:12:40.006Z,97013.47
2022-12-13T21:15:12.349Z,96998.66
2022-12-13T21:17:42.035Z,96992.59
2022-12-13T21:20:13.690Z,96987.75
2022-12-13T21:22:43.374Z,96991.34
2022-12-13T21:25:13.287Z,96979.53
2022-12-13T21:27:43.311Z,96968.47
2022-12-13T21:30:19.470Z,96950.69
2022-12-13T21:32:52.780Z,96953.25
2022-12-13T21:35:26.063Z,96955.13
2022-12-13T21:37:59.635Z,96951.22
2022-12-13T21:40:32.207Z,96948.00
2022-12-13T21:43:02.707Z,96950.13
2022-12-13T21:45:32.796Z,96937.63
2022-12-13T21:48:01.873Z,96929.66
2022-12-13T21:50:32.365Z,96930.63
2022-12-13T21:53:01.725Z,96925.50
2022-12-13T21:55:38.812Z,96928.59
2022-12-13T21:58:28.717Z,96912.16
2022-12-13T22:00:58.487Z,96912.44
2022-12-13T22:03:28.110Z,96908.91
2022-12-13T22:05:58.658Z,96927.63
2022-12-13T22:08:28.931Z,96926.81
2022-12-13T22:11:21.453Z,96937.06
2022-12-13T22:13:52.101Z,96948.94
2022-12-13T22:16:21.825Z,96939.38
2022-12-13T22:18:51.535Z,96930.75
2022-12-13T22:21:21.724Z,96928.88
2022-12-13T22:23:54.731Z,96926.97
2022-12-13T22:26:24.673Z,96923.47
2022-12-13T22:28:54.651Z,96915.38
2022-12-13T22:31:29.482Z,96904.47
2022-12-13T22:33:59.224Z,96884.94
2022-12-13T22:36:29.714Z,96886.41
2022-12-13T22:38:59.251Z,96888.72
2022-12-13T22:41:28.340Z,96883.31
2022-12-13T22:43:58.027Z,96883.31
2022-12-13T22:46:27.266Z,96886.84
2022-12-13T22:48:55.781Z,96884.28
2022-12-13T22:51:25.569Z,96892.09
2022-12-13T22:53:56.846Z,96895.72
2022-12-13T22:56:25.874Z,96901.94
2022-12-13T22:58:55.704Z,96907.59
2022-12-13T23:01:26.964Z,96893.56
2022-12-13T23:03:56.635Z,96888.31
2022-12-13T23:06:29.505Z,96891.69
2022-12-13T23:09:02.618Z,96890.06
2022-12-13T23:11:50.084Z,96901.13
2022-12-13T23:14:21.930Z,96892.75
2022-12-13T23:16:52.457Z,96892.75
2022-12-13T23:22:11.217Z,96887.34
2022-12-13T23:24:42.802Z,96883.06
2022-12-13T23:27:13.401Z,96889.69
2022-12-13T23:29:42.972Z,96882.00
2022-12-13T23:32:13.389Z,96880.09
2022-12-13T23:34:44.011Z,96888.72
2022-12-13T23:37:12.678Z,96880.09
2022-12-13T23:39:43.203Z,96873.34
2022-12-13T23:42:12.222Z,96865.81
2022-12-13T23:44:40.705Z,96866.09
2022-12-13T23:47:10.781Z,96862.56
2022-12-13T23:49:40.302Z,96859.91
2022-12-13T23:52:10.402Z,96848.72
2022-12-13T23:54:42.568Z,96853.69
2022-12-13T23:57:11.913Z,96836.19
2022-12-13T23:59:42.032Z,96846.41
